Terminal Aerodrome Forecast
Issued by NWS Charleston, WV

Current Version | Previous Version | Graphics & Text | Print | Product List | Glossary On
Versions: 1 2 3 4 5 6 7 8 9 10 11 12 13 14 15 16 17 18 19 20 21
000
FTUS41 KRLX 261100
TAFCRW
TAF
KCRW 261131Z 2612/2712 00000KT P6SM SKC
      TEMPO 2612/2613 4SM BR SCT001
     FM261600 19005KT P6SM FEW040
     FM261800 19008G18KT P6SM SCT050
     FM262200 VRB04KT P6SM FEW090=

USA.gov is the U.S. government's official web portal to all federal, state and local government web resources and services.